KJAC/JAC METAR and TAF weather

Enter ICAO airport designator
Station Type Date Time Source
KJAC METAR 2019/06/17 04:56 UTC NOAA

KJAC 170456Z AUTO 00000KT 10SM BKN110 10/09 A3012 RMK AO2 SLP161 T01000089


Station Type Date Time Source
KJAC Decoded METAR 2019/06/17 04:56 UTC NOAA

Jackson, Jackson Hole Airport, WY, United States (KJAC) 43-36N 110-44W
Jun 17, 2019 - 12:56 AM EDT / 2019.06.17 0456 UTC
Wind: Calm:0
Visibility: 10 mile(s):0
Sky conditions: mostly cloudy
Temperature: 50.0 F (10.0 C)
Dew Point: 48.0 F (8.9 C)
Relative Humidity: 92%
Pressure (altimeter): 30.12 in. Hg (1019 hPa)
ob: KJAC 170456Z AUTO 00000KT 10SM BKN110 10/09 A3012 RMK AO2 SLP161 T01000089
cycle: 5

Station Type Date Time Source
KJAC TAF 2019/06/16 18:24 UTC NOAA

TAF KJAC 161721Z 1618/1718 19007KT P6SM SCT080
FM162100 24012KT P6SM VCTS SCT070 BKN090CB
FM170100 VRB04KT P6SM BKN120
AMD LTD TO CLD VIS AND WIND

Example: see airport list